createdAt,value
2017-12-03T00:01:33.167Z,21.03
2017-12-03T00:04:38.859Z,21.70
2017-12-03T00:07:44.171Z,20.17
2017-12-03T00:10:49.850Z,19.93
2017-12-03T00:13:55.214Z,19.27
2017-12-03T00:17:00.204Z,21.70
2017-12-03T00:20:06.052Z,20.97
2017-12-03T00:23:11.228Z,21.17
2017-12-03T00:26:16.676Z,20.67
2017-12-03T00:29:22.076Z,20.70
2017-12-03T00:32:27.325Z,22.87
2017-12-03T00:35:34.100Z,22.10
2017-12-03T00:38:39.450Z,23.80
2017-12-03T00:41:44.459Z,27.80
2017-12-03T00:44:49.962Z,23.10
2017-12-03T00:47:56.541Z,23.40
2017-12-03T00:51:02.423Z,22.80
2017-12-03T00:54:07.906Z,22.60
2017-12-03T00:57:13.409Z,21.20
2017-12-03T01:00:19.732Z,22.77
2017-12-03T01:03:25.420Z,27.43
2017-12-03T01:06:30.810Z,26.70
2017-12-03T01:09:36.887Z,23.50
2017-12-03T01:12:42.515Z,23.27
2017-12-03T01:15:47.241Z,22.97
2017-12-03T01:18:52.063Z,22.93
2017-12-03T01:21:57.829Z,20.80
2017-12-03T01:25:03.249Z,22.77
2017-12-03T01:28:09.520Z,21.90
2017-12-03T01:31:16.027Z,24.03
2017-12-03T01:34:21.717Z,20.37
2017-12-03T01:37:27.449Z,24.00
2017-12-03T01:40:32.721Z,25.27
2017-12-03T01:43:38.359Z,25.50
2017-12-03T01:46:44.232Z,25.33
2017-12-03T01:49:50.508Z,24.37
2017-12-03T01:52:55.568Z,22.30
2017-12-03T01:56:01.144Z,23.93
2017-12-03T01:59:06.791Z,19.60
2017-12-03T02:02:12.591Z,21.53
2017-12-03T02:05:20.985Z,21.70
2017-12-03T02:08:26.516Z,24.87
2017-12-03T02:11:32.244Z,19.83
2017-12-03T02:14:37.111Z,20.53
2017-12-03T02:17:42.348Z,25.40
2017-12-03T02:20:48.355Z,20.83
2017-12-03T02:23:53.931Z,18.73
2017-12-03T02:26:59.500Z,18.50
2017-12-03T02:30:04.511Z,23.50
2017-12-03T02:33:10.596Z,21.60
2017-12-03T02:36:16.220Z,18.40
2017-12-03T02:39:21.772Z,21.60
2017-12-03T02:42:27.464Z,21.10
2017-12-03T02:45:32.399Z,19.40
2017-12-03T02:48:38.173Z,21.53
2017-12-03T02:51:44.000Z,27.00
2017-12-03T02:54:48.757Z,19.97
2017-12-03T02:57:54.345Z,18.20
2017-12-03T03:01:00.993Z,21.63
2017-12-03T03:04:06.016Z,22.07
2017-12-03T03:07:11.633Z,19.37
2017-12-03T03:10:16.788Z,21.60
2017-12-03T03:13:22.041Z,21.50
2017-12-03T03:16:26.880Z,19.17
2017-12-03T03:19:31.956Z,19.10
2017-12-03T03:22:36.755Z,24.20
2017-12-03T03:25:42.403Z,21.97
2017-12-03T03:28:48.116Z,19.00
2017-12-03T03:31:53.890Z,21.50
2017-12-03T03:35:02.364Z,19.23
2017-12-03T03:38:07.688Z,22.23
2017-12-03T03:41:13.566Z,18.63
2017-12-03T03:44:19.019Z,18.57
2017-12-03T03:47:25.874Z,17.27
2017-12-03T03:50:32.188Z,16.57
2017-12-03T03:53:40.229Z,16.00
2017-12-03T03:56:45.784Z,18.80
2017-12-03T03:59:51.092Z,19.80
2017-12-03T04:02:56.539Z,19.70
2017-12-03T04:06:02.093Z,21.30
2017-12-03T04:09:08.224Z,18.40
2017-12-03T04:12:13.735Z,23.00
2017-12-03T04:15:18.883Z,20.37
2017-12-03T04:18:24.471Z,24.33
2017-12-03T04:21:30.837Z,22.20
2017-12-03T04:24:35.595Z,19.87
2017-12-03T04:27:40.400Z,18.90
2017-12-03T04:30:52.433Z,18.40
2017-12-03T04:33:57.399Z,17.73
2017-12-03T04:37:02.519Z,18.33
2017-12-03T04:40:08.107Z,19.57
2017-12-03T04:43:13.885Z,20.37
2017-12-03T04:46:19.464Z,18.50
2017-12-03T04:49:24.949Z,17.17
2017-12-03T04:52:29.975Z,19.30
2017-12-03T04:55:35.792Z,19.80
2017-12-03T04:58:41.368Z,19.10
2017-12-03T05:01:47.159Z,19.73
2017-12-03T05:04:52.604Z,20.80
2017-12-03T05:07:58.417Z,22.53
2017-12-03T05:11:03.484Z,17.10
2017-12-03T05:14:10.172Z,21.77
2017-12-03T05:17:14.824Z,18.87
2017-12-03T05:20:19.891Z,18.93
2017-12-03T05:23:25.289Z,18.53
2017-12-03T05:26:30.050Z,21.80
2017-12-03T05:29:35.527Z,17.70
2017-12-03T05:32:41.997Z,18.37
2017-12-03T05:35:47.840Z,18.80
2017-12-03T05:38:53.154Z,20.87
2017-12-03T05:41:58.531Z,17.40
2017-12-03T05:45:04.028Z,20.27
2017-12-03T05:48:10.125Z,17.77
2017-12-03T05:51:15.556Z,19.17
2017-12-03T05:54:21.415Z,17.50
2017-12-03T05:57:26.137Z,18.00
2017-12-03T06:00:31.204Z,16.60
2017-12-03T06:03:36.600Z,20.07
2017-12-03T06:06:42.226Z,17.00
2017-12-03T06:09:47.620Z,15.80
2017-12-03T06:13:00.969Z,17.33
2017-12-03T06:16:05.789Z,16.93
2017-12-03T06:19:11.892Z,18.33
2017-12-03T06:22:17.832Z,17.67
2017-12-03T06:25:22.864Z,16.70
2017-12-03T06:28:28.040Z,18.97
2017-12-03T06:31:33.536Z,19.67
2017-12-03T06:34:39.340Z,18.07
2017-12-03T06:37:44.756Z,15.00
2017-12-03T06:40:50.585Z,14.67
2017-12-03T06:43:56.168Z,18.43
2017-12-03T06:47:03.353Z,20.00
2017-12-03T06:50:08.896Z,17.23
2017-12-03T06:53:15.584Z,17.00
2017-12-03T06:56:21.460Z,14.83
2017-12-03T06:59:28.312Z,18.30
2017-12-03T07:02:33.643Z,14.17
2017-12-03T07:05:39.419Z,18.50
2017-12-03T07:08:44.476Z,15.30
2017-12-03T07:11:49.507Z,17.03
2017-12-03T07:14:54.795Z,18.03
2017-12-03T07:18:00.356Z,16.17
2017-12-03T07:21:05.243Z,18.13
2017-12-03T07:24:10.589Z,15.50
2017-12-03T07:27:16.092Z,13.60
2017-12-03T07:30:22.433Z,15.70
2017-12-03T07:33:27.451Z,13.90
2017-12-03T07:36:33.394Z,12.63
2017-12-03T07:39:39.083Z,14.87
2017-12-03T07:42:44.578Z,14.00
2017-12-03T07:45:50.967Z,15.27
2017-12-03T07:48:56.539Z,15.27
2017-12-03T07:52:03.143Z,15.30
2017-12-03T07:55:08.892Z,18.17
2017-12-03T07:58:15.976Z,16.17
2017-12-03T08:01:21.363Z,15.60
2017-12-03T08:04:28.452Z,13.53
2017-12-03T08:07:34.524Z,16.07
2017-12-03T08:10:39.676Z,14.23
2017-12-03T08:13:45.588Z,14.63
2017-12-03T08:16:50.435Z,15.90
2017-12-03T08:19:59.112Z,15.60
2017-12-03T08:23:04.372Z,14.60
2017-12-03T08:26:09.170Z,16.77
2017-12-03T08:29:14.768Z,14.10
2017-12-03T08:32:20.137Z,13.83
2017-12-03T08:35:25.468Z,13.07
2017-12-03T08:38:30.804Z,13.43
2017-12-03T08:41:36.467Z,14.37
2017-12-03T08:44:42.051Z,14.10
2017-12-03T08:47:47.626Z,14.27
2017-12-03T08:50:52.830Z,18.30
2017-12-03T08:53:57.819Z,16.77
2017-12-03T08:57:03.372Z,14.70
2017-12-03T09:00:08.628Z,14.00
2017-12-03T09:03:17.427Z,16.10
2017-12-03T09:06:22.603Z,16.77
2017-12-03T09:09:28.836Z,30.03
2017-12-03T09:12:34.302Z,17.93
2017-12-03T09:15:39.676Z,17.57
2017-12-03T09:18:45.512Z,16.47
2017-12-03T09:21:50.585Z,15.87
2017-12-03T09:24:55.944Z,16.77
2017-12-03T09:28:00.867Z,16.30
2017-12-03T09:31:06.850Z,15.80
2017-12-03T09:34:12.820Z,20.30
2017-12-03T09:37:18.912Z,19.13
2017-12-03T09:40:25.298Z,18.00
2017-12-03T09:43:31.769Z,17.13
2017-12-03T09:46:40.616Z,18.60
2017-12-03T09:49:46.402Z,19.80
2017-12-03T09:52:51.598Z,18.93
2017-12-03T09:55:56.644Z,17.07
2017-12-03T09:59:01.468Z,16.73
2017-12-03T10:02:07.859Z,17.50
2017-12-03T10:05:13.104Z,14.50
2017-12-03T10:08:18.665Z,15.40
2017-12-03T10:11:25.064Z,17.07
2017-12-03T10:14:30.408Z,18.73
2017-12-03T10:17:35.989Z,15.83
2017-12-03T10:20:42.720Z,14.60
2017-12-03T10:23:47.964Z,18.70
2017-12-03T10:26:53.280Z,14.90
2017-12-03T10:29:58.708Z,15.30
2017-12-03T10:33:04.200Z,16.93
2017-12-03T10:36:09.896Z,17.23
2017-12-03T10:39:14.648Z,18.13
2017-12-03T10:42:19.723Z,15.27
2017-12-03T10:45:24.561Z,21.70
2017-12-03T10:48:29.700Z,21.77
2017-12-03T10:51:34.303Z,23.93
2017-12-03T10:54:40.320Z,17.30
2017-12-03T10:57:45.655Z,18.60
2017-12-03T11:00:50.799Z,17.30
2017-12-03T11:03:56.321Z,15.20
2017-12-03T11:07:01.744Z,19.60
2017-12-03T11:10:07.031Z,19.53
2017-12-03T11:13:12.772Z,20.30
2017-12-03T11:16:17.415Z,20.90
2017-12-03T11:19:23.098Z,21.20
2017-12-03T11:22:28.404Z,17.93
2017-12-03T11:25:34.940Z,17.77
2017-12-03T11:28:39.771Z,17.23
2017-12-03T11:31:46.615Z,18.40
2017-12-03T11:34:52.248Z,22.43
2017-12-03T11:37:58.353Z,19.93
2017-12-03T11:41:03.689Z,20.30
2017-12-03T11:44:09.701Z,20.37
2017-12-03T11:47:16.261Z,18.63
2017-12-03T11:50:21.391Z,21.00
2017-12-03T11:53:27.814Z,23.80
2017-12-03T11:56:33.431Z,16.87
2017-12-03T11:59:39.342Z,19.53
2017-12-03T12:02:44.152Z,21.43
2017-12-03T12:05:50.580Z,20.63
2017-12-03T12:08:55.956Z,20.90
2017-12-03T12:12:01.218Z,19.30
2017-12-03T12:15:06.457Z,25.77
2017-12-03T12:18:11.524Z,18.10
2017-12-03T12:21:16.524Z,21.73
2017-12-03T12:24:23.042Z,21.17
2017-12-03T12:27:29.015Z,22.10
2017-12-03T12:30:39.488Z,20.10
2017-12-03T12:33:45.251Z,22.83
2017-12-03T12:36:51.634Z,20.80
2017-12-03T12:40:06.460Z,20.77
2017-12-03T12:43:12.071Z,19.80
2017-12-03T12:46:18.850Z,24.63
2017-12-03T12:49:24.200Z,17.87
2017-12-03T12:52:30.264Z,19.60
2017-12-03T12:55:35.476Z,23.93
2017-12-03T12:58:42.123Z,23.93
2017-12-03T13:01:47.207Z,23.40
2017-12-03T13:04:53.737Z,27.33
2017-12-03T13:07:59.048Z,26.40
2017-12-03T13:11:05.084Z,34.53
2017-12-03T13:14:10.536Z,29.57
2017-12-03T13:17:15.864Z,25.53
2017-12-03T13:20:21.803Z,22.97
2017-12-03T13:23:27.045Z,26.17
2017-12-03T13:26:31.991Z,28.30
2017-12-03T13:29:36.832Z,30.90
2017-12-03T13:32:43.220Z,24.77
2017-12-03T13:35:49.016Z,28.77
2017-12-03T13:38:54.129Z,26.80
2017-12-03T13:42:00.740Z,26.30
2017-12-03T13:45:06.545Z,26.00
2017-12-03T13:48:11.945Z,25.70
2017-12-03T13:51:17.029Z,25.50
2017-12-03T13:54:22.071Z,29.40
2017-12-03T13:57:27.535Z,27.30
2017-12-03T14:00:33.775Z,26.87
2017-12-03T14:03:38.532Z,26.83
2017-12-03T14:06:45.096Z,24.00
2017-12-03T14:09:51.567Z,29.77
2017-12-03T14:12:56.604Z,28.13
2017-12-03T14:16:02.257Z,27.93
2017-12-03T14:19:07.977Z,27.83
2017-12-03T14:22:13.187Z,29.33
2017-12-03T14:25:18.940Z,24.53
2017-12-03T14:28:24.100Z,28.70
2017-12-03T14:31:29.584Z,29.17
2017-12-03T14:34:35.221Z,31.30
2017-12-03T14:37:40.708Z,34.73
2017-12-03T14:40:45.976Z,32.50
2017-12-03T14:43:50.790Z,31.70
2017-12-03T14:46:55.941Z,26.97
2017-12-03T14:50:01.972Z,29.83
2017-12-03T14:53:07.380Z,29.77
2017-12-03T14:56:12.126Z,36.20
2017-12-03T14:59:17.025Z,30.73
2017-12-03T15:02:22.673Z,31.57
2017-12-03T15:05:28.812Z,28.80
2017-12-03T15:08:34.126Z,35.67
2017-12-03T15:11:41.855Z,32.90
2017-12-03T15:14:52.480Z,35.77
2017-12-03T15:18:03.432Z,39.87
2017-12-03T15:21:11.088Z,71.00
2017-12-03T15:24:15.714Z,43.30
2017-12-03T15:27:20.600Z,35.47
2017-12-03T15:30:26.345Z,38.37
2017-12-03T15:33:31.635Z,39.17
2017-12-03T15:36:38.755Z,35.27
2017-12-03T15:39:44.062Z,31.57
2017-12-03T15:42:57.330Z,33.13
2017-12-03T15:46:02.391Z,37.53
2017-12-03T15:49:07.727Z,34.13
2017-12-03T15:52:13.701Z,34.70
2017-12-03T15:55:19.136Z,31.73
2017-12-03T15:58:24.920Z,31.83
2017-12-03T16:01:30.871Z,35.77
2017-12-03T16:04:36.721Z,31.00
2017-12-03T16:07:46.564Z,33.10
2017-12-03T16:10:52.559Z,35.97
2017-12-03T16:13:59.148Z,32.67
2017-12-03T16:17:04.487Z,36.90
2017-12-03T16:20:10.966Z,37.00
2017-12-03T16:23:18.812Z,34.63
2017-12-03T16:26:24.591Z,32.07
2017-12-03T16:29:33.203Z,33.57
2017-12-03T16:32:38.739Z,33.37
2017-12-03T16:35:43.516Z,39.37
2017-12-03T16:38:50.519Z,34.50
2017-12-03T16:41:55.571Z,37.77
2017-12-03T16:45:00.653Z,30.60
2017-12-03T16:48:12.024Z,32.10
2017-12-03T16:51:18.051Z,35.43
2017-12-03T16:54:22.857Z,36.67
2017-12-03T16:57:28.380Z,38.53
2017-12-03T17:00:34.158Z,35.37
2017-12-03T17:03:40.227Z,38.87
2017-12-03T17:06:45.477Z,36.40
2017-12-03T17:09:51.653Z,33.60
2017-12-03T17:12:57.645Z,31.23
2017-12-03T17:16:03.583Z,42.53
2017-12-03T17:19:09.200Z,39.90
2017-12-03T17:22:15.692Z,33.57
2017-12-03T17:25:21.238Z,35.27
2017-12-03T17:28:33.227Z,33.70
2017-12-03T17:31:39.173Z,36.13
2017-12-03T17:34:45.753Z,34.07
2017-12-03T17:37:50.763Z,27.10
2017-12-03T17:40:56.741Z,29.80
2017-12-03T17:44:02.072Z,34.43
2017-12-03T17:47:07.281Z,30.27
2017-12-03T17:50:12.600Z,32.47
2017-12-03T17:53:25.698Z,29.63
2017-12-03T17:56:31.900Z,31.00
2017-12-03T17:59:37.170Z,31.27
2017-12-03T18:02:47.299Z,31.10
2017-12-03T18:06:02.980Z,29.50
2017-12-03T18:09:10.620Z,33.53
2017-12-03T18:12:16.815Z,30.03
2017-12-03T18:15:22.992Z,30.13
2017-12-03T18:18:28.564Z,31.53
2017-12-03T18:21:34.005Z,29.90
2017-12-03T18:24:41.876Z,26.00
2017-12-03T18:27:48.325Z,32.67
2017-12-03T18:30:54.691Z,28.37
2017-12-03T18:34:00.360Z,31.20
2017-12-03T18:37:05.915Z,27.73
2017-12-03T18:40:16.840Z,30.30
2017-12-03T18:43:23.423Z,36.57
2017-12-03T18:46:29.264Z,28.87
2017-12-03T18:49:34.532Z,29.43
2017-12-03T18:52:40.857Z,29.50
2017-12-03T18:55:45.886Z,30.17
2017-12-03T18:58:51.514Z,31.23
2017-12-03T19:02:03.093Z,30.80
2017-12-03T19:05:09.484Z,31.30
2017-12-03T19:08:16.188Z,36.50
2017-12-03T19:11:22.277Z,30.67
2017-12-03T19:14:29.233Z,29.70
2017-12-03T19:17:34.557Z,31.07
2017-12-03T19:20:40.826Z,31.00
2017-12-03T19:23:48.250Z,32.57
2017-12-03T19:26:54.504Z,31.80
2017-12-03T19:29:59.535Z,18.57
2017-12-03T19:33:06.180Z,21.60
2017-12-03T19:36:11.882Z,31.83
2017-12-03T19:39:17.592Z,32.10
2017-12-03T19:42:22.548Z,35.57
2017-12-03T19:45:31.624Z,33.00
2017-12-03T19:48:37.067Z,26.50
2017-12-03T19:51:43.579Z,25.13
2017-12-03T19:54:49.338Z,31.00
2017-12-03T19:57:54.281Z,27.73
2017-12-03T20:00:59.939Z,28.80
2017-12-03T20:04:05.367Z,30.53
2017-12-03T20:07:11.526Z,30.83
2017-12-03T20:10:16.695Z,25.60
2017-12-03T20:13:22.855Z,26.27
2017-12-03T20:16:28.664Z,31.07
2017-12-03T20:19:34.903Z,26.43
2017-12-03T20:22:40.269Z,32.63
2017-12-03T20:25:46.203Z,27.23
2017-12-03T20:28:52.196Z,24.67
2017-12-03T20:31:58.003Z,25.57
2017-12-03T20:35:04.456Z,27.13
2017-12-03T20:38:09.590Z,20.90
2017-12-03T20:41:15.676Z,26.03
2017-12-03T20:44:20.944Z,24.33
2017-12-03T20:47:25.780Z,21.33
2017-12-03T20:50:31.482Z,18.63
2017-12-03T20:53:36.684Z,20.10
2017-12-03T20:56:42.345Z,19.50
2017-12-03T20:59:47.188Z,16.07
2017-12-03T21:02:57.981Z,20.00
2017-12-03T21:06:03.559Z,22.10
2017-12-03T21:09:09.786Z,21.30
2017-12-03T21:12:15.423Z,24.23
2017-12-03T21:15:20.768Z,21.93
2017-12-03T21:18:26.576Z,20.63
2017-12-03T21:21:32.246Z,21.83
2017-12-03T21:24:38.074Z,19.80
2017-12-03T21:27:43.581Z,24.10
2017-12-03T21:30:50.083Z,20.43
2017-12-03T21:33:55.268Z,24.43
2017-12-03T21:37:00.564Z,20.83
2017-12-03T21:40:05.827Z,25.70
2017-12-03T21:43:11.193Z,22.17
2017-12-03T21:46:16.083Z,26.53
2017-12-03T21:49:21.476Z,23.53
2017-12-03T21:52:26.826Z,25.33
2017-12-03T21:55:32.108Z,27.57
2017-12-03T21:58:38.044Z,28.97
2017-12-03T22:01:43.184Z,23.67
2017-12-03T22:04:49.917Z,31.10
2017-12-03T22:07:58.539Z,23.60
2017-12-03T22:11:04.060Z,27.40
2017-12-03T22:14:09.607Z,25.17
2017-12-03T22:17:14.527Z,27.10
2017-12-03T22:20:20.372Z,25.50
2017-12-03T22:23:25.220Z,22.73
2017-12-03T22:26:30.828Z,23.00
2017-12-03T22:29:36.074Z,24.10
2017-12-03T22:32:41.124Z,28.17
2017-12-03T22:35:46.867Z,24.43
2017-12-03T22:38:52.619Z,27.40
2017-12-03T22:41:58.164Z,27.03
2017-12-03T22:45:05.132Z,29.17
2017-12-03T22:48:10.584Z,29.20
2017-12-03T22:51:17.092Z,30.17
2017-12-03T22:54:22.570Z,31.80
2017-12-03T22:57:30.144Z,30.70
2017-12-03T23:00:41.111Z,33.87
2017-12-03T23:03:47.510Z,31.93
2017-12-03T23:06:52.914Z,30.37
2017-12-03T23:09:58.096Z,33.23
2017-12-03T23:13:03.761Z,30.37
2017-12-03T23:16:08.707Z,31.80
2017-12-03T23:19:14.012Z,29.97
2017-12-03T23:22:19.620Z,29.70
2017-12-03T23:25:25.981Z,24.47
2017-12-03T23:28:31.536Z,25.63
2017-12-03T23:31:37.140Z,33.10
2017-12-03T23:34:42.096Z,34.80
2017-12-03T23:37:49.200Z,33.83
2017-12-03T23:40:54.444Z,37.77
2017-12-03T23:43:59.901Z,35.47
2017-12-03T23:47:04.715Z,31.30
2017-12-03T23:50:09.564Z,29.63
2017-12-03T23:53:14.897Z,30.83
2017-12-03T23:56:20.157Z,36.70
2017-12-03T23:59:25.205Z,32.43
